sensor_id;sensor_type;location;lat;lon;timestamp;P1;durP1;ratioP1;P2;durP2;ratioP2
69323;SDS011;56470;47.350;8.718;2023-04-24T00:00:05;1.60;;;1.37;;
69323;SDS011;56470;47.350;8.718;2023-04-24T00:02:31;2.17;;;1.10;;
69323;SDS011;56470;47.350;8.718;2023-04-24T00:04:59;1.92;;;1.25;;
69323;SDS011;56470;47.350;8.718;2023-04-24T00:07:28;1.92;;;1.10;;
69323;SDS011;56470;47.350;8.718;2023-04-24T00:09:54;1.58;;;1.00;;
69323;SDS011;56470;47.350;8.718;2023-04-24T00:12:19;1.20;;;0.90;;
69323;SDS011;56470;47.350;8.718;2023-04-24T00:14:45;3.67;;;1.40;;
69323;SDS011;56470;47.350;8.718;2023-04-24T00:17:10;1.75;;;1.00;;
69323;SDS011;56470;47.350;8.718;2023-04-24T00:19:38;1.10;;;0.90;;
69323;SDS011;56470;47.350;8.718;2023-04-24T00:22:04;1.20;;;0.80;;
69323;SDS011;56470;47.350;8.718;2023-04-24T00:24:30;2.22;;;0.93;;
69323;SDS011;56470;47.350;8.718;2023-04-24T00:26:55;1.23;;;0.83;;
69323;SDS011;56470;47.350;8.718;2023-04-24T00:29:21;1.13;;;0.97;;
69323;SDS011;56470;47.350;8.718;2023-04-24T00:31:46;1.43;;;0.83;;
69323;SDS011;56470;47.350;8.718;2023-04-24T00:34:12;1.10;;;0.90;;
69323;SDS011;56470;47.350;8.718;2023-04-24T00:36:38;2.35;;;0.73;;
69323;SDS011;56470;47.350;8.718;2023-04-24T00:39:04;1.33;;;1.03;;
69323;SDS011;56470;47.350;8.718;2023-04-24T00:41:29;0.90;;;0.67;;
69323;SDS011;56470;47.350;8.718;2023-04-24T00:43:55;1.30;;;1.00;;
69323;SDS011;56470;47.350;8.718;2023-04-24T00:46:20;1.40;;;1.00;;
69323;SDS011;56470;47.350;8.718;2023-04-24T00:48:46;1.15;;;0.90;;
69323;SDS011;56470;47.350;8.718;2023-04-24T00:51:11;1.00;;;0.87;;
69323;SDS011;56470;47.350;8.718;2023-04-24T00:53:37;1.48;;;0.90;;
69323;SDS011;56470;47.350;8.718;2023-04-24T00:56:02;0.97;;;0.83;;
69323;SDS011;56470;47.350;8.718;2023-04-24T00:58:29;1.33;;;1.10;;
69323;SDS011;56470;47.350;8.718;2023-04-24T01:00:56;1.55;;;1.00;;
69323;SDS011;56470;47.350;8.718;2023-04-24T01:03:23;0.73;;;0.50;;
69323;SDS011;56470;47.350;8.718;2023-04-24T01:05:52;1.10;;;1.00;;
69323;SDS011;56470;47.350;8.718;2023-04-24T01:08:19;1.05;;;0.80;;
69323;SDS011;56470;47.350;8.718;2023-04-24T01:10:47;0.95;;;0.85;;
69323;SDS011;56470;47.350;8.718;2023-04-24T01:13:14;0.90;;;0.80;;
69323;SDS011;56470;47.350;8.718;2023-04-24T01:15:40;1.07;;;0.97;;
69323;SDS011;56470;47.350;8.718;2023-04-24T01:18:05;0.87;;;0.53;;
69323;SDS011;56470;47.350;8.718;2023-04-24T01:20:31;1.23;;;0.70;;
69323;SDS011;56470;47.350;8.718;2023-04-24T01:22:57;0.90;;;0.70;;
69323;SDS011;56470;47.350;8.718;2023-04-24T01:25:23;1.07;;;0.70;;
69323;SDS011;56470;47.350;8.718;2023-04-24T01:27:50;1.20;;;0.90;;
69323;SDS011;56470;47.350;8.718;2023-04-24T01:30:16;1.30;;;0.80;;
69323;SDS011;56470;47.350;8.718;2023-04-24T01:32:42;1.33;;;1.07;;
69323;SDS011;56470;47.350;8.718;2023-04-24T01:35:10;1.20;;;1.05;;
69323;SDS011;56470;47.350;8.718;2023-04-24T01:37:36;1.00;;;0.87;;
69323;SDS011;56470;47.350;8.718;2023-04-24T01:40:07;1.58;;;1.08;;
69323;SDS011;56470;47.350;8.718;2023-04-24T01:42:34;1.02;;;0.90;;
69323;SDS011;56470;47.350;8.718;2023-04-24T01:44:59;1.00;;;0.75;;
69323;SDS011;56470;47.350;8.718;2023-04-24T01:47:26;1.63;;;0.83;;
69323;SDS011;56470;47.350;8.718;2023-04-24T01:49:52;1.10;;;0.68;;
69323;SDS011;56470;47.350;8.718;2023-04-24T01:52:17;1.40;;;0.67;;
69323;SDS011;56470;47.350;8.718;2023-04-24T01:54:43;1.25;;;1.15;;
69323;SDS011;56470;47.350;8.718;2023-04-24T01:57:09;1.13;;;1.00;;
69323;SDS011;56470;47.350;8.718;2023-04-24T01:59:35;1.47;;;0.80;;
69323;SDS011;56470;47.350;8.718;2023-04-24T02:02:01;1.30;;;0.98;;
69323;SDS011;56470;47.350;8.718;2023-04-24T02:04:27;0.90;;;0.68;;
69323;SDS011;56470;47.350;8.718;2023-04-24T02:06:53;1.83;;;0.80;;
69323;SDS011;56470;47.350;8.718;2023-04-24T02:09:21;1.17;;;0.95;;
69323;SDS011;56470;47.350;8.718;2023-04-24T02:11:47;1.30;;;1.00;;
69323;SDS011;56470;47.350;8.718;2023-04-24T02:14:12;1.20;;;1.00;;
69323;SDS011;56470;47.350;8.718;2023-04-24T02:16:37;1.20;;;1.10;;
69323;SDS011;56470;47.350;8.718;2023-04-24T02:19:03;1.00;;;0.73;;
69323;SDS011;56470;47.350;8.718;2023-04-24T02:21:28;1.20;;;0.77;;
69323;SDS011;56470;47.350;8.718;2023-04-24T02:23:55;1.02;;;0.85;;
69323;SDS011;56470;47.350;8.718;2023-04-24T02:26:21;0.90;;;0.70;;
69323;SDS011;56470;47.350;8.718;2023-04-24T02:28:46;1.10;;;1.00;;
69323;SDS011;56470;47.350;8.718;2023-04-24T02:31:11;0.90;;;0.67;;
69323;SDS011;56470;47.350;8.718;2023-04-24T02:33:37;0.90;;;0.73;;
69323;SDS011;56470;47.350;8.718;2023-04-24T02:36:02;1.00;;;0.70;;
69323;SDS011;56470;47.350;8.718;2023-04-24T02:38:28;1.00;;;0.83;;
69323;SDS011;56470;47.350;8.718;2023-04-24T02:40:54;0.77;;;0.65;;
69323;SDS011;56470;47.350;8.718;2023-04-24T02:43:19;1.10;;;0.80;;
69323;SDS011;56470;47.350;8.718;2023-04-24T02:45:45;1.65;;;0.80;;
69323;SDS011;56470;47.350;8.718;2023-04-24T02:48:10;1.67;;;0.70;;
69323;SDS011;56470;47.350;8.718;2023-04-24T02:50:36;1.20;;;1.10;;
69323;SDS011;56470;47.350;8.718;2023-04-24T02:53:01;1.10;;;0.70;;
69323;SDS011;56470;47.350;8.718;2023-04-24T02:55:26;0.77;;;0.57;;
69323;SDS011;56470;47.350;8.718;2023-04-24T02:57:52;1.40;;;0.90;;
69323;SDS011;56470;47.350;8.718;2023-04-24T03:00:20;1.20;;;1.08;;
69323;SDS011;56470;47.350;8.718;2023-04-24T03:02:45;1.73;;;1.20;;
69323;SDS011;56470;47.350;8.718;2023-04-24T03:05:11;1.80;;;1.15;;
69323;SDS011;56470;47.350;8.718;2023-04-24T03:07:39;1.07;;;0.97;;
69323;SDS011;56470;47.350;8.718;2023-04-24T03:10:05;0.98;;;0.73;;
69323;SDS011;56470;47.350;8.718;2023-04-24T03:12:31;0.90;;;0.73;;
69323;SDS011;56470;47.350;8.718;2023-04-24T03:14:56;0.93;;;0.80;;
69323;SDS011;56470;47.350;8.718;2023-04-24T03:17:22;1.20;;;0.97;;
69323;SDS011;56470;47.350;8.718;2023-04-24T03:19:47;1.13;;;1.03;;
69323;SDS011;56470;47.350;8.718;2023-04-24T03:22:13;1.00;;;0.85;;
69323;SDS011;56470;47.350;8.718;2023-04-24T03:24:38;0.93;;;0.73;;
69323;SDS011;56470;47.350;8.718;2023-04-24T03:27:03;1.00;;;0.60;;
69323;SDS011;56470;47.350;8.718;2023-04-24T03:29:29;1.20;;;1.10;;
69323;SDS011;56470;47.350;8.718;2023-04-24T03:31:54;0.90;;;0.80;;
69323;SDS011;56470;47.350;8.718;2023-04-24T03:34:19;1.30;;;0.63;;
69323;SDS011;56470;47.350;8.718;2023-04-24T03:36:45;1.20;;;1.07;;
69323;SDS011;56470;47.350;8.718;2023-04-24T03:39:12;1.10;;;0.80;;
69323;SDS011;56470;47.350;8.718;2023-04-24T03:41:38;1.03;;;0.87;;
69323;SDS011;56470;47.350;8.718;2023-04-24T03:44:03;1.10;;;0.83;;
69323;SDS011;56470;47.350;8.718;2023-04-24T03:46:28;0.70;;;0.60;;
69323;SDS011;56470;47.350;8.718;2023-04-24T03:48:54;0.70;;;0.60;;
69323;SDS011;56470;47.350;8.718;2023-04-24T03:51:20;0.98;;;0.88;;
69323;SDS011;56470;47.350;8.718;2023-04-24T03:53:45;2.47;;;1.07;;
69323;SDS011;56470;47.350;8.718;2023-04-24T03:56:10;1.00;;;0.77;;
69323;SDS011;56470;47.350;8.718;2023-04-24T03:58:36;0.70;;;0.50;;
69323;SDS011;56470;47.350;8.718;2023-04-24T04:01:01;1.20;;;1.10;;
69323;SDS011;56470;47.350;8.718;2023-04-24T04:03:27;0.95;;;0.85;;
69323;SDS011;56470;47.350;8.718;2023-04-24T04:05:53;1.00;;;0.90;;
69323;SDS011;56470;47.350;8.718;2023-04-24T04:08:19;0.90;;;0.73;;
69323;SDS011;56470;47.350;8.718;2023-04-24T04:10:54;1.20;;;0.85;;
69323;SDS011;56470;47.350;8.718;2023-04-24T04:13:19;1.08;;;0.98;;
69323;SDS011;56470;47.350;8.718;2023-04-24T04:15:58;0.70;;;0.52;;
69323;SDS011;56470;47.350;8.718;2023-04-24T04:18:23;1.27;;;0.90;;
69323;SDS011;56470;47.350;8.718;2023-04-24T04:21:06;1.10;;;1.00;;
69323;SDS011;56470;47.350;8.718;2023-04-24T04:23:58;1.45;;;0.95;;
69323;SDS011;56470;47.350;8.718;2023-04-24T04:26:24;1.50;;;0.80;;
69323;SDS011;56470;47.350;8.718;2023-04-24T04:28:50;1.20;;;0.77;;
69323;SDS011;56470;47.350;8.718;2023-04-24T04:31:16;1.15;;;0.80;;
69323;SDS011;56470;47.350;8.718;2023-04-24T04:33:41;1.40;;;0.70;;
69323;SDS011;56470;47.350;8.718;2023-04-24T04:36:07;1.33;;;0.87;;
69323;SDS011;56470;47.350;8.718;2023-04-24T04:38:33;1.65;;;1.13;;
69323;SDS011;56470;47.350;8.718;2023-04-24T04:40:59;1.20;;;0.90;;
69323;SDS011;56470;47.350;8.718;2023-04-24T04:43:25;1.00;;;0.80;;
69323;SDS011;56470;47.350;8.718;2023-04-24T04:45:51;1.40;;;1.00;;
69323;SDS011;56470;47.350;8.718;2023-04-24T04:48:17;1.92;;;1.02;;
69323;SDS011;56470;47.350;8.718;2023-04-24T04:50:43;1.20;;;0.73;;
69323;SDS011;56470;47.350;8.718;2023-04-24T04:53:08;1.40;;;1.17;;
69323;SDS011;56470;47.350;8.718;2023-04-24T04:55:36;1.95;;;1.05;;
69323;SDS011;56470;47.350;8.718;2023-04-24T04:58:02;2.35;;;1.42;;
69323;SDS011;56470;47.350;8.718;2023-04-24T05:00:28;2.30;;;0.90;;
69323;SDS011;56470;47.350;8.718;2023-04-24T05:02:58;2.10;;;1.08;;
69323;SDS011;56470;47.350;8.718;2023-04-24T05:05:24;2.30;;;1.10;;
69323;SDS011;56470;47.350;8.718;2023-04-24T05:07:49;1.87;;;0.60;;
69323;SDS011;56470;47.350;8.718;2023-04-24T05:10:14;0.97;;;0.87;;
69323;SDS011;56470;47.350;8.718;2023-04-24T05:12:39;0.90;;;0.70;;
69323;SDS011;56470;47.350;8.718;2023-04-24T05:15:05;1.20;;;0.77;;
69323;SDS011;56470;47.350;8.718;2023-04-24T05:17:31;0.90;;;0.70;;
69323;SDS011;56470;47.350;8.718;2023-04-24T05:19:56;1.20;;;0.97;;
69323;SDS011;56470;47.350;8.718;2023-04-24T05:22:21;0.88;;;0.60;;
69323;SDS011;56470;47.350;8.718;2023-04-24T05:24:47;1.40;;;0.80;;
69323;SDS011;56470;47.350;8.718;2023-04-24T05:27:12;1.67;;;0.70;;
69323;SDS011;56470;47.350;8.718;2023-04-24T05:29:38;1.20;;;0.68;;
69323;SDS011;56470;47.350;8.718;2023-04-24T05:32:05;1.10;;;0.70;;
69323;SDS011;56470;47.350;8.718;2023-04-24T05:34:30;2.30;;;0.80;;
69323;SDS011;56470;47.350;8.718;2023-04-24T05:36:55;1.00;;;0.73;;
69323;SDS011;56470;47.350;8.718;2023-04-24T05:39:21;1.73;;;0.87;;
69323;SDS011;56470;47.350;8.718;2023-04-24T05:41:46;1.10;;;0.90;;
69323;SDS011;56470;47.350;8.718;2023-04-24T05:44:11;2.67;;;1.10;;
69323;SDS011;56470;47.350;8.718;2023-04-24T05:46:36;1.08;;;0.68;;
69323;SDS011;56470;47.350;8.718;2023-04-24T05:49:02;1.07;;;0.80;;
69323;SDS011;56470;47.350;8.718;2023-04-24T05:51:27;1.87;;;1.30;;
69323;SDS011;56470;47.350;8.718;2023-04-24T05:53:53;2.00;;;1.03;;
69323;SDS011;56470;47.350;8.718;2023-04-24T05:56:18;1.20;;;0.60;;
69323;SDS011;56470;47.350;8.718;2023-04-24T05:58:45;1.90;;;1.33;;
69323;SDS011;56470;47.350;8.718;2023-04-24T06:01:11;2.60;;;0.98;;
69323;SDS011;56470;47.350;8.718;2023-04-24T06:03:37;1.20;;;1.10;;
69323;SDS011;56470;47.350;8.718;2023-04-24T06:06:03;2.03;;;1.08;;
69323;SDS011;56470;47.350;8.718;2023-04-24T06:08:28;1.00;;;0.70;;
69323;SDS011;56470;47.350;8.718;2023-04-24T06:10:54;1.30;;;1.13;;
69323;SDS011;56470;47.350;8.718;2023-04-24T06:13:19;1.20;;;0.82;;
69323;SDS011;56470;47.350;8.718;2023-04-24T06:15:45;1.37;;;0.83;;
69323;SDS011;56470;47.350;8.718;2023-04-24T06:18:10;1.17;;;1.07;;
69323;SDS011;56470;47.350;8.718;2023-04-24T06:20:36;4.03;;;1.40;;
69323;SDS011;56470;47.350;8.718;2023-04-24T06:23:01;1.97;;;1.17;;
69323;SDS011;56470;47.350;8.718;2023-04-24T06:25:27;1.50;;;1.20;;
69323;SDS011;56470;47.350;8.718;2023-04-24T06:27:53;2.00;;;0.93;;
69323;SDS011;56470;47.350;8.718;2023-04-24T06:30:19;2.00;;;1.45;;
69323;SDS011;56470;47.350;8.718;2023-04-24T06:32:44;2.17;;;0.90;;
69323;SDS011;56470;47.350;8.718;2023-04-24T06:35:10;2.30;;;0.90;;
69323;SDS011;56470;47.350;8.718;2023-04-24T06:37:36;1.40;;;0.95;;
69323;SDS011;56470;47.350;8.718;2023-04-24T06:40:01;1.03;;;0.77;;
69323;SDS011;56470;47.350;8.718;2023-04-24T06:42:27;1.40;;;1.17;;
69323;SDS011;56470;47.350;8.718;2023-04-24T06:44:52;1.30;;;1.00;;
69323;SDS011;56470;47.350;8.718;2023-04-24T06:47:18;1.50;;;0.83;;
69323;SDS011;56470;47.350;8.718;2023-04-24T06:49:43;1.43;;;0.60;;
69323;SDS011;56470;47.350;8.718;2023-04-24T06:52:08;1.10;;;0.90;;
69323;SDS011;56470;47.350;8.718;2023-04-24T06:54:34;1.13;;;0.82;;
69323;SDS011;56470;47.350;8.718;2023-04-24T06:57:00;1.80;;;1.10;;
69323;SDS011;56470;47.350;8.718;2023-04-24T06:59:28;1.48;;;1.30;;
69323;SDS011;56470;47.350;8.718;2023-04-24T07:01:54;1.60;;;1.13;;
69323;SDS011;56470;47.350;8.718;2023-04-24T07:04:20;1.92;;;0.80;;
69323;SDS011;56470;47.350;8.718;2023-04-24T07:06:45;1.17;;;0.93;;
69323;SDS011;56470;47.350;8.718;2023-04-24T07:09:11;1.63;;;1.02;;
69323;SDS011;56470;47.350;8.718;2023-04-24T07:11:38;3.58;;;1.60;;
69323;SDS011;56470;47.350;8.718;2023-04-24T07:14:05;4.35;;;2.45;;
69323;SDS011;56470;47.350;8.718;2023-04-24T07:16:31;5.80;;;2.37;;
69323;SDS011;56470;47.350;8.718;2023-04-24T07:18:56;6.07;;;3.07;;
69323;SDS011;56470;47.350;8.718;2023-04-24T07:21:22;4.38;;;2.10;;
69323;SDS011;56470;47.350;8.718;2023-04-24T07:23:50;2.47;;;1.67;;
69323;SDS011;56470;47.350;8.718;2023-04-24T07:26:16;1.80;;;1.10;;
69323;SDS011;56470;47.350;8.718;2023-04-24T07:28:41;2.22;;;0.90;;
69323;SDS011;56470;47.350;8.718;2023-04-24T07:31:06;1.73;;;1.33;;
69323;SDS011;56470;47.350;8.718;2023-04-24T07:33:33;1.97;;;1.10;;
69323;SDS011;56470;47.350;8.718;2023-04-24T07:35:59;3.30;;;1.30;;
69323;SDS011;56470;47.350;8.718;2023-04-24T07:38:24;2.33;;;1.30;;
69323;SDS011;56470;47.350;8.718;2023-04-24T07:40:50;1.83;;;1.27;;
69323;SDS011;56470;47.350;8.718;2023-04-24T07:43:16;2.67;;;1.10;;
69323;SDS011;56470;47.350;8.718;2023-04-24T07:45:42;1.80;;;1.20;;
69323;SDS011;56470;47.350;8.718;2023-04-24T07:48:07;2.10;;;0.90;;
69323;SDS011;56470;47.350;8.718;2023-04-24T07:50:33;2.22;;;1.48;;
69323;SDS011;56470;47.350;8.718;2023-04-24T07:52:59;0.83;;;0.53;;
69323;SDS011;56470;47.350;8.718;2023-04-24T07:55:25;2.63;;;1.47;;
69323;SDS011;56470;47.350;8.718;2023-04-24T07:57:50;2.90;;;1.10;;
69323;SDS011;56470;47.350;8.718;2023-04-24T08:00:16;2.67;;;0.80;;
69323;SDS011;56470;47.350;8.718;2023-04-24T08:02:41;3.10;;;1.38;;
69323;SDS011;56470;47.350;8.718;2023-04-24T08:05:07;2.17;;;1.53;;
69323;SDS011;56470;47.350;8.718;2023-04-24T08:07:33;3.25;;;1.67;;
69323;SDS011;56470;47.350;8.718;2023-04-24T08:09:58;4.10;;;1.33;;
69323;SDS011;56470;47.350;8.718;2023-04-24T08:12:24;1.50;;;1.10;;
69323;SDS011;56470;47.350;8.718;2023-04-24T08:14:50;1.90;;;1.10;;
69323;SDS011;56470;47.350;8.718;2023-04-24T08:17:16;1.65;;;0.95;;
69323;SDS011;56470;47.350;8.718;2023-04-24T08:19:42;1.77;;;1.30;;
69323;SDS011;56470;47.350;8.718;2023-04-24T08:22:12;2.05;;;1.00;;
69323;SDS011;56470;47.350;8.718;2023-04-24T08:24:38;2.55;;;1.10;;
69323;SDS011;56470;47.350;8.718;2023-04-24T08:27:03;3.20;;;1.60;;
69323;SDS011;56470;47.350;8.718;2023-04-24T08:29:28;1.83;;;1.50;;
69323;SDS011;56470;47.350;8.718;2023-04-24T08:31:54;2.23;;;1.67;;
69323;SDS011;56470;47.350;8.718;2023-04-24T08:34:20;3.40;;;0.93;;
69323;SDS011;56470;47.350;8.718;2023-04-24T08:36:45;2.42;;;0.90;;
69323;SDS011;56470;47.350;8.718;2023-04-24T08:39:11;3.50;;;1.67;;
69323;SDS011;56470;47.350;8.718;2023-04-24T08:41:36;1.97;;;1.10;;
69323;SDS011;56470;47.350;8.718;2023-04-24T08:44:02;3.40;;;0.90;;
69323;SDS011;56470;47.350;8.718;2023-04-24T08:46:29;1.83;;;1.03;;
69323;SDS011;56470;47.350;8.718;2023-04-24T08:48:57;7.05;;;1.67;;
69323;SDS011;56470;47.350;8.718;2023-04-24T08:51:23;2.78;;;1.27;;
69323;SDS011;56470;47.350;8.718;2023-04-24T08:53:54;2.33;;;1.25;;
69323;SDS011;56470;47.350;8.718;2023-04-24T08:56:20;2.43;;;1.13;;
69323;SDS011;56470;47.350;8.718;2023-04-24T08:58:48;2.70;;;1.30;;
69323;SDS011;56470;47.350;8.718;2023-04-24T09:01:15;2.70;;;1.30;;
69323;SDS011;56470;47.350;8.718;2023-04-24T09:03:45;3.67;;;1.42;;
69323;SDS011;56470;47.350;8.718;2023-04-24T09:06:13;4.30;;;1.70;;
69323;SDS011;56470;47.350;8.718;2023-04-24T09:08:38;2.70;;;1.33;;
69323;SDS011;56470;47.350;8.718;2023-04-24T09:11:05;3.17;;;1.42;;
69323;SDS011;56470;47.350;8.718;2023-04-24T09:13:31;2.93;;;1.50;;
69323;SDS011;56470;47.350;8.718;2023-04-24T09:15:57;4.45;;;1.55;;
69323;SDS011;56470;47.350;8.718;2023-04-24T09:18:22;4.77;;;2.90;;
69323;SDS011;56470;47.350;8.718;2023-04-24T09:21:04;10.17;;;9.37;;
69323;SDS011;56470;47.350;8.718;2023-04-24T09:23:32;4.03;;;2.20;;
69323;SDS011;56470;47.350;8.718;2023-04-24T09:25:59;4.55;;;2.17;;
69323;SDS011;56470;47.350;8.718;2023-04-24T09:28:27;5.03;;;1.83;;
69323;SDS011;56470;47.350;8.718;2023-04-24T09:31:05;2.97;;;1.90;;
69323;SDS011;56470;47.350;8.718;2023-04-24T09:33:31;3.25;;;1.77;;
69323;SDS011;56470;47.350;8.718;2023-04-24T09:35:56;3.25;;;1.40;;
69323;SDS011;56470;47.350;8.718;2023-04-24T09:38:30;2.87;;;1.40;;
69323;SDS011;56470;47.350;8.718;2023-04-24T09:40:58;2.47;;;1.63;;
69323;SDS011;56470;47.350;8.718;2023-04-24T09:43:26;4.47;;;1.50;;
69323;SDS011;56470;47.350;8.718;2023-04-24T09:45:52;3.90;;;1.80;;
69323;SDS011;56470;47.350;8.718;2023-04-24T09:48:29;4.88;;;2.08;;
69323;SDS011;56470;47.350;8.718;2023-04-24T09:50:55;4.40;;;1.60;;
69323;SDS011;56470;47.350;8.718;2023-04-24T09:53:24;4.03;;;1.73;;
69323;SDS011;56470;47.350;8.718;2023-04-24T09:55:50;3.03;;;1.50;;
69323;SDS011;56470;47.350;8.718;2023-04-24T09:58:18;3.35;;;1.50;;
69323;SDS011;56470;47.350;8.718;2023-04-24T10:00:49;3.30;;;1.63;;
69323;SDS011;56470;47.350;8.718;2023-04-24T10:03:15;2.88;;;1.90;;
69323;SDS011;56470;47.350;8.718;2023-04-24T10:05:44;3.42;;;1.70;;
69323;SDS011;56470;47.350;8.718;2023-04-24T10:08:11;5.53;;;1.90;;
69323;SDS011;56470;47.350;8.718;2023-04-24T10:10:41;4.57;;;1.30;;
69323;SDS011;56470;47.350;8.718;2023-04-24T10:13:08;4.25;;;1.55;;
69323;SDS011;56470;47.350;8.718;2023-04-24T10:15:35;4.38;;;1.50;;
69323;SDS011;56470;47.350;8.718;2023-04-24T10:18:02;4.30;;;1.98;;
69323;SDS011;56470;47.350;8.718;2023-04-24T10:20:31;2.90;;;1.45;;
69323;SDS011;56470;47.350;8.718;2023-04-24T10:22:59;2.87;;;1.67;;
69323;SDS011;56470;47.350;8.718;2023-04-24T10:25:26;3.67;;;1.95;;
69323;SDS011;56470;47.350;8.718;2023-04-24T10:27:56;2.72;;;1.55;;
69323;SDS011;56470;47.350;8.718;2023-04-24T10:30:25;5.82;;;2.00;;
69323;SDS011;56470;47.350;8.718;2023-04-24T10:32:57;2.45;;;1.60;;
69323;SDS011;56470;47.350;8.718;2023-04-24T10:35:24;2.70;;;1.67;;
69323;SDS011;56470;47.350;8.718;2023-04-24T10:37:56;4.22;;;1.45;;
69323;SDS011;56470;47.350;8.718;2023-04-24T10:40:30;3.47;;;1.65;;
69323;SDS011;56470;47.350;8.718;2023-04-24T10:42:57;3.67;;;1.90;;
69323;SDS011;56470;47.350;8.718;2023-04-24T10:45:23;3.83;;;1.80;;
69323;SDS011;56470;47.350;8.718;2023-04-24T10:47:52;3.67;;;1.85;;
69323;SDS011;56470;47.350;8.718;2023-04-24T10:50:34;3.40;;;1.77;;
69323;SDS011;56470;47.350;8.718;2023-04-24T10:53:12;3.23;;;1.47;;
69323;SDS011;56470;47.350;8.718;2023-04-24T10:55:42;3.78;;;1.55;;
69323;SDS011;56470;47.350;8.718;2023-04-24T10:58:09;2.42;;;1.75;;
69323;SDS011;56470;47.350;8.718;2023-04-24T11:00:39;3.15;;;1.88;;
69323;SDS011;56470;47.350;8.718;2023-04-24T11:03:06;2.97;;;1.50;;
69323;SDS011;56470;47.350;8.718;2023-04-24T11:06:07;2.00;;;1.17;;
69323;SDS011;56470;47.350;8.718;2023-04-24T11:08:42;2.05;;;1.58;;
69323;SDS011;56470;47.350;8.718;2023-04-24T11:11:10;3.47;;;1.77;;
69323;SDS011;56470;47.350;8.718;2023-04-24T11:16:25;2.13;;;1.52;;
69323;SDS011;56470;47.350;8.718;2023-04-24T11:27:18;2.88;;;1.40;;
69323;SDS011;56470;47.350;8.718;2023-04-24T11:29:46;3.95;;;1.73;;
69323;SDS011;56470;47.350;8.718;2023-04-24T11:34:48;2.53;;;1.83;;
69323;SDS011;56470;47.350;8.718;2023-04-24T11:37:15;2.42;;;1.25;;
69323;SDS011;56470;47.350;8.718;2023-04-24T11:39:40;2.17;;;1.20;;
69323;SDS011;56470;47.350;8.718;2023-04-24T11:42:06;4.80;;;1.85;;
69323;SDS011;56470;47.350;8.718;2023-04-24T11:44:33;4.73;;;1.60;;
69323;SDS011;56470;47.350;8.718;2023-04-24T11:46:59;3.85;;;1.58;;
69323;SDS011;56470;47.350;8.718;2023-04-24T11:49:24;2.50;;;1.60;;
69323;SDS011;56470;47.350;8.718;2023-04-24T11:51:50;2.67;;;1.48;;
69323;SDS011;56470;47.350;8.718;2023-04-24T11:54:20;2.47;;;1.63;;
69323;SDS011;56470;47.350;8.718;2023-04-24T11:56:46;4.13;;;1.60;;
69323;SDS011;56470;47.350;8.718;2023-04-24T11:59:12;2.55;;;1.55;;
69323;SDS011;56470;47.350;8.718;2023-04-24T12:01:46;1.63;;;0.90;;
69323;SDS011;56470;47.350;8.718;2023-04-24T12:04:13;2.80;;;1.27;;
69323;SDS011;56470;47.350;8.718;2023-04-24T12:06:39;2.65;;;1.45;;
69323;SDS011;56470;47.350;8.718;2023-04-24T12:09:04;2.60;;;1.80;;
69323;SDS011;56470;47.350;8.718;2023-04-24T12:11:30;3.73;;;1.40;;
69323;SDS011;56470;47.350;8.718;2023-04-24T12:13:55;2.53;;;1.65;;
69323;SDS011;56470;47.350;8.718;2023-04-24T12:16:21;3.03;;;1.63;;
69323;SDS011;56470;47.350;8.718;2023-04-24T12:18:46;2.40;;;1.33;;
69323;SDS011;56470;47.350;8.718;2023-04-24T12:21:21;4.47;;;1.27;;
69323;SDS011;56470;47.350;8.718;2023-04-24T12:23:48;2.30;;;1.13;;
69323;SDS011;56470;47.350;8.718;2023-04-24T12:26:17;3.72;;;1.73;;
69323;SDS011;56470;47.350;8.718;2023-04-24T12:28:45;2.75;;;1.65;;
69323;SDS011;56470;47.350;8.718;2023-04-24T12:31:12;3.55;;;1.75;;
69323;SDS011;56470;47.350;8.718;2023-04-24T12:33:37;2.30;;;1.40;;
69323;SDS011;56470;47.350;8.718;2023-04-24T12:36:03;3.60;;;1.40;;
69323;SDS011;56470;47.350;8.718;2023-04-24T12:38:30;2.60;;;1.45;;
69323;SDS011;56470;47.350;8.718;2023-04-24T12:41:08;2.50;;;1.63;;
69323;SDS011;56470;47.350;8.718;2023-04-24T12:43:35;2.97;;;1.60;;
69323;SDS011;56470;47.350;8.718;2023-04-24T12:46:01;3.88;;;1.40;;
69323;SDS011;56470;47.350;8.718;2023-04-24T12:48:26;3.53;;;1.87;;
69323;SDS011;56470;47.350;8.718;2023-04-24T12:50:52;2.85;;;1.70;;
69323;SDS011;56470;47.350;8.718;2023-04-24T12:53:17;2.87;;;1.57;;
69323;SDS011;56470;47.350;8.718;2023-04-24T12:55:43;4.60;;;1.63;;
69323;SDS011;56470;47.350;8.718;2023-04-24T12:58:09;3.30;;;1.70;;
69323;SDS011;56470;47.350;8.718;2023-04-24T13:00:35;2.97;;;1.70;;
69323;SDS011;56470;47.350;8.718;2023-04-24T13:03:01;3.05;;;1.60;;
69323;SDS011;56470;47.350;8.718;2023-04-24T13:05:26;4.33;;;1.53;;
69323;SDS011;56470;47.350;8.718;2023-04-24T13:07:51;4.77;;;1.47;;
69323;SDS011;56470;47.350;8.718;2023-04-24T13:10:17;2.33;;;1.10;;
69323;SDS011;56470;47.350;8.718;2023-04-24T13:12:42;4.18;;;1.58;;
69323;SDS011;56470;47.350;8.718;2023-04-24T13:15:10;2.43;;;1.40;;
69323;SDS011;56470;47.350;8.718;2023-04-24T13:17:35;2.42;;;1.40;;
69323;SDS011;56470;47.350;8.718;2023-04-24T13:20:01;2.27;;;1.40;;
69323;SDS011;56470;47.350;8.718;2023-04-24T13:22:26;4.87;;;2.10;;
69323;SDS011;56470;47.350;8.718;2023-04-24T13:24:52;3.15;;;1.70;;
69323;SDS011;56470;47.350;8.718;2023-04-24T13:27:17;2.33;;;1.13;;
69323;SDS011;56470;47.350;8.718;2023-04-24T13:29:43;2.57;;;1.43;;
69323;SDS011;56470;47.350;8.718;2023-04-24T13:32:08;2.93;;;1.23;;
69323;SDS011;56470;47.350;8.718;2023-04-24T13:34:34;1.27;;;0.93;;
69323;SDS011;56470;47.350;8.718;2023-04-24T13:37:00;2.33;;;1.30;;
69323;SDS011;56470;47.350;8.718;2023-04-24T13:39:25;2.85;;;1.55;;
69323;SDS011;56470;47.350;8.718;2023-04-24T13:41:51;2.73;;;1.70;;
69323;SDS011;56470;47.350;8.718;2023-04-24T13:44:17;3.55;;;1.40;;
69323;SDS011;56470;47.350;8.718;2023-04-24T13:46:44;2.70;;;1.45;;
69323;SDS011;56470;47.350;8.718;2023-04-24T13:49:10;3.40;;;1.58;;
69323;SDS011;56470;47.350;8.718;2023-04-24T13:51:39;2.10;;;1.60;;
69323;SDS011;56470;47.350;8.718;2023-04-24T13:54:05;2.22;;;1.40;;
69323;SDS011;56470;47.350;8.718;2023-04-24T13:56:30;2.17;;;1.10;;
69323;SDS011;56470;47.350;8.718;2023-04-24T13:58:56;3.08;;;1.80;;
69323;SDS011;56470;47.350;8.718;2023-04-24T14:01:21;1.50;;;1.00;;
69323;SDS011;56470;47.350;8.718;2023-04-24T14:03:50;4.63;;;1.02;;
69323;SDS011;56470;47.350;8.718;2023-04-24T14:06:17;2.78;;;1.73;;
69323;SDS011;56470;47.350;8.718;2023-04-24T14:08:45;3.10;;;1.77;;
69323;SDS011;56470;47.350;8.718;2023-04-24T14:11:11;2.83;;;1.30;;
69323;SDS011;56470;47.350;8.718;2023-04-24T14:13:36;4.17;;;1.40;;
69323;SDS011;56470;47.350;8.718;2023-04-24T14:16:05;2.70;;;1.35;;
69323;SDS011;56470;47.350;8.718;2023-04-24T14:18:31;2.22;;;1.50;;
69323;SDS011;56470;47.350;8.718;2023-04-24T14:20:56;3.60;;;1.90;;
69323;SDS011;56470;47.350;8.718;2023-04-24T14:23:21;3.90;;;1.90;;
69323;SDS011;56470;47.350;8.718;2023-04-24T14:25:47;3.37;;;1.30;;
69323;SDS011;56470;47.350;8.718;2023-04-24T14:28:15;2.55;;;1.50;;
69323;SDS011;56470;47.350;8.718;2023-04-24T14:30:41;2.70;;;1.20;;
69323;SDS011;56470;47.350;8.718;2023-04-24T14:33:07;3.23;;;1.50;;
69323;SDS011;56470;47.350;8.718;2023-04-24T14:35:32;2.60;;;1.80;;
69323;SDS011;56470;47.350;8.718;2023-04-24T14:37:59;2.78;;;1.30;;
69323;SDS011;56470;47.350;8.718;2023-04-24T14:40:24;2.20;;;1.40;;
69323;SDS011;56470;47.350;8.718;2023-04-24T14:42:49;2.50;;;1.17;;
69323;SDS011;56470;47.350;8.718;2023-04-24T14:45:15;8.10;;;2.03;;
69323;SDS011;56470;47.350;8.718;2023-04-24T14:47:40;2.60;;;1.70;;
69323;SDS011;56470;47.350;8.718;2023-04-24T14:50:06;3.30;;;2.00;;
69323;SDS011;56470;47.350;8.718;2023-04-24T14:52:33;3.25;;;2.03;;
69323;SDS011;56470;47.350;8.718;2023-04-24T14:54:58;2.57;;;1.50;;
69323;SDS011;56470;47.350;8.718;2023-04-24T14:57:23;3.00;;;1.63;;